sensor_id;sensor_type;location;lat;lon;timestamp;P1;durP1;ratioP1;P2;durP2;ratioP2
72319;SDS011;60269;52.502;16.732;2023-05-02T00:02:52;17.87;;;6.40;;
72319;SDS011;60269;52.502;16.732;2023-05-02T00:06:24;15.18;;;6.13;;
72319;SDS011;60269;52.502;16.732;2023-05-02T00:09:56;20.33;;;6.43;;
72319;SDS011;60269;52.502;16.732;2023-05-02T00:13:29;17.20;;;6.17;;
72319;SDS011;60269;52.502;16.732;2023-05-02T00:17:01;14.17;;;5.37;;
72319;SDS011;60269;52.502;16.732;2023-05-02T00:20:33;17.90;;;5.57;;
72319;SDS011;60269;52.502;16.732;2023-05-02T00:24:05;12.32;;;5.53;;
72319;SDS011;60269;52.502;16.732;2023-05-02T00:27:37;15.80;;;5.77;;
72319;SDS011;60269;52.502;16.732;2023-05-02T00:31:09;16.07;;;5.63;;
72319;SDS011;60269;52.502;16.732;2023-05-02T00:34:41;15.40;;;5.78;;
72319;SDS011;60269;52.502;16.732;2023-05-02T00:38:13;17.05;;;6.28;;
72319;SDS011;60269;52.502;16.732;2023-05-02T00:41:45;14.77;;;5.80;;
72319;SDS011;60269;52.502;16.732;2023-05-02T00:45:17;14.83;;;5.53;;
72319;SDS011;60269;52.502;16.732;2023-05-02T00:48:49;23.88;;;6.20;;
72319;SDS011;60269;52.502;16.732;2023-05-02T00:52:21;15.10;;;4.90;;
72319;SDS011;60269;52.502;16.732;2023-05-02T00:55:53;15.77;;;6.27;;
72319;SDS011;60269;52.502;16.732;2023-05-02T00:59:25;17.50;;;6.30;;
72319;SDS011;60269;52.502;16.732;2023-05-02T01:02:58;15.20;;;5.53;;
72319;SDS011;60269;52.502;16.732;2023-05-02T01:11:15;16.40;;;6.33;;
72319;SDS011;60269;52.502;16.732;2023-05-02T01:14:26;13.60;;;5.60;;
72319;SDS011;60269;52.502;16.732;2023-05-02T01:18:01;17.30;;;5.97;;
72319;SDS011;60269;52.502;16.732;2023-05-02T01:21:36;17.05;;;6.07;;
72319;SDS011;60269;52.502;16.732;2023-05-02T01:28:59;16.40;;;6.23;;
72319;SDS011;60269;52.502;16.732;2023-05-02T01:32:32;17.50;;;6.70;;
72319;SDS011;60269;52.502;16.732;2023-05-02T01:36:08;15.85;;;5.78;;
72319;SDS011;60269;52.502;16.732;2023-05-02T01:39:40;19.77;;;7.17;;
72319;SDS011;60269;52.502;16.732;2023-05-02T01:43:14;13.53;;;5.77;;
72319;SDS011;60269;52.502;16.732;2023-05-02T01:46:48;17.02;;;6.38;;
72319;SDS011;60269;52.502;16.732;2023-05-02T01:50:23;16.23;;;6.43;;
72319;SDS011;60269;52.502;16.732;2023-05-02T01:53:56;17.83;;;6.70;;
72319;SDS011;60269;52.502;16.732;2023-05-02T01:57:30;13.90;;;6.13;;
72319;SDS011;60269;52.502;16.732;2023-05-02T02:01:02;18.92;;;6.70;;
72319;SDS011;60269;52.502;16.732;2023-05-02T02:04:36;14.27;;;5.80;;
72319;SDS011;60269;52.502;16.732;2023-05-02T02:08:11;13.60;;;6.30;;
72319;SDS011;60269;52.502;16.732;2023-05-02T02:11:45;15.13;;;6.20;;
72319;SDS011;60269;52.502;16.732;2023-05-02T02:15:23;17.85;;;6.20;;
72319;SDS011;60269;52.502;16.732;2023-05-02T02:19:00;14.60;;;5.93;;
72319;SDS011;60269;52.502;16.732;2023-05-02T02:22:37;13.97;;;6.20;;
72319;SDS011;60269;52.502;16.732;2023-05-02T02:26:11;11.93;;;5.40;;
72319;SDS011;60269;52.502;16.732;2023-05-02T02:29:44;17.13;;;6.63;;
72319;SDS011;60269;52.502;16.732;2023-05-02T02:33:17;14.27;;;6.57;;
72319;SDS011;60269;52.502;16.732;2023-05-02T02:36:56;14.23;;;6.03;;
72319;SDS011;60269;52.502;16.732;2023-05-02T02:40:46;15.40;;;6.17;;
72319;SDS011;60269;52.502;16.732;2023-05-02T02:52:52;13.97;;;6.03;;
72319;SDS011;60269;52.502;16.732;2023-05-02T02:56:01;15.53;;;6.30;;
72319;SDS011;60269;52.502;16.732;2023-05-02T02:59:37;15.65;;;6.55;;
72319;SDS011;60269;52.502;16.732;2023-05-02T03:03:16;22.13;;;7.47;;
72319;SDS011;60269;52.502;16.732;2023-05-02T03:06:49;17.47;;;7.53;;
72319;SDS011;60269;52.502;16.732;2023-05-02T03:10:21;15.07;;;7.23;;
72319;SDS011;60269;52.502;16.732;2023-05-02T03:13:54;16.92;;;7.35;;
72319;SDS011;60269;52.502;16.732;2023-05-02T03:17:26;18.73;;;7.07;;
72319;SDS011;60269;52.502;16.732;2023-05-02T03:20:58;14.57;;;6.77;;
72319;SDS011;60269;52.502;16.732;2023-05-02T03:24:30;16.67;;;6.95;;
72319;SDS011;60269;52.502;16.732;2023-05-02T03:28:02;14.73;;;6.70;;
72319;SDS011;60269;52.502;16.732;2023-05-02T03:31:34;19.13;;;7.45;;
72319;SDS011;60269;52.502;16.732;2023-05-02T03:35:06;16.33;;;6.53;;
72319;SDS011;60269;52.502;16.732;2023-05-02T03:38:39;19.67;;;7.20;;
72319;SDS011;60269;52.502;16.732;2023-05-02T03:42:11;17.85;;;7.25;;
72319;SDS011;60269;52.502;16.732;2023-05-02T03:45:43;15.80;;;7.00;;
72319;SDS011;60269;52.502;16.732;2023-05-02T03:49:18;16.50;;;6.50;;
72319;SDS011;60269;52.502;16.732;2023-05-02T03:52:51;14.95;;;7.18;;
72319;SDS011;60269;52.502;16.732;2023-05-02T03:56:23;15.07;;;6.38;;
72319;SDS011;60269;52.502;16.732;2023-05-02T03:59:58;15.80;;;6.60;;
72319;SDS011;60269;52.502;16.732;2023-05-02T04:03:31;20.98;;;6.65;;
72319;SDS011;60269;52.502;16.732;2023-05-02T04:07:03;15.50;;;6.40;;
72319;SDS011;60269;52.502;16.732;2023-05-02T04:10:37;16.23;;;6.88;;
72319;SDS011;60269;52.502;16.732;2023-05-02T04:14:10;14.43;;;6.07;;
72319;SDS011;60269;52.502;16.732;2023-05-02T04:17:41;12.60;;;5.90;;
72319;SDS011;60269;52.502;16.732;2023-05-02T04:21:13;13.18;;;5.75;;
72319;SDS011;60269;52.502;16.732;2023-05-02T04:24:47;12.13;;;5.07;;
72319;SDS011;60269;52.502;16.732;2023-05-02T04:28:20;14.57;;;4.87;;
72319;SDS011;60269;52.502;16.732;2023-05-02T04:31:55;14.40;;;5.20;;
72319;SDS011;60269;52.502;16.732;2023-05-02T04:35:31;11.10;;;4.68;;
72319;SDS011;60269;52.502;16.732;2023-05-02T04:39:03;11.53;;;5.00;;
72319;SDS011;60269;52.502;16.732;2023-05-02T04:42:38;9.87;;;3.67;;
72319;SDS011;60269;52.502;16.732;2023-05-02T04:46:10;13.45;;;4.25;;
72319;SDS011;60269;52.502;16.732;2023-05-02T04:49:43;13.63;;;4.43;;
72319;SDS011;60269;52.502;16.732;2023-05-02T04:53:15;9.50;;;3.53;;
72319;SDS011;60269;52.502;16.732;2023-05-02T04:56:50;10.23;;;3.60;;
72319;SDS011;60269;52.502;16.732;2023-05-02T05:00:22;10.70;;;3.83;;
72319;SDS011;60269;52.502;16.732;2023-05-02T05:03:54;9.35;;;3.60;;
72319;SDS011;60269;52.502;16.732;2023-05-02T05:07:26;10.93;;;4.57;;
72319;SDS011;60269;52.502;16.732;2023-05-02T05:10:58;13.10;;;4.53;;
72319;SDS011;60269;52.502;16.732;2023-05-02T05:14:30;13.77;;;5.22;;
72319;SDS011;60269;52.502;16.732;2023-05-02T05:18:02;14.52;;;5.03;;
72319;SDS011;60269;52.502;16.732;2023-05-02T05:21:34;12.33;;;4.83;;
72319;SDS011;60269;52.502;16.732;2023-05-02T05:25:07;13.27;;;4.93;;
72319;SDS011;60269;52.502;16.732;2023-05-02T05:28:47;13.35;;;5.35;;
72319;SDS011;60269;52.502;16.732;2023-05-02T05:32:26;13.20;;;4.18;;
72319;SDS011;60269;52.502;16.732;2023-05-02T05:36:11;14.07;;;4.30;;
72319;SDS011;60269;52.502;16.732;2023-05-02T05:39:47;10.13;;;4.10;;
72319;SDS011;60269;52.502;16.732;2023-05-02T05:43:19;12.70;;;4.45;;
72319;SDS011;60269;52.502;16.732;2023-05-02T05:46:55;15.82;;;4.70;;
72319;SDS011;60269;52.502;16.732;2023-05-02T05:50:29;11.17;;;4.43;;
72319;SDS011;60269;52.502;16.732;2023-05-02T05:54:01;11.52;;;4.00;;
72319;SDS011;60269;52.502;16.732;2023-05-02T05:57:35;14.32;;;4.30;;
72319;SDS011;60269;52.502;16.732;2023-05-02T06:01:07;9.03;;;3.60;;
72319;SDS011;60269;52.502;16.732;2023-05-02T06:04:39;11.10;;;3.90;;
72319;SDS011;60269;52.502;16.732;2023-05-02T06:08:11;12.05;;;3.63;;
72319;SDS011;60269;52.502;16.732;2023-05-02T06:11:43;10.43;;;3.65;;
72319;SDS011;60269;52.502;16.732;2023-05-02T06:15:15;11.43;;;3.93;;
72319;SDS011;60269;52.502;16.732;2023-05-02T06:18:49;9.23;;;3.87;;
72319;SDS011;60269;52.502;16.732;2023-05-02T06:26:22;10.35;;;3.22;;
72319;SDS011;60269;52.502;16.732;2023-05-02T06:29:54;11.87;;;4.53;;
72319;SDS011;60269;52.502;16.732;2023-05-02T06:33:29;11.60;;;4.03;;
72319;SDS011;60269;52.502;16.732;2023-05-02T06:37:10;9.65;;;3.70;;
72319;SDS011;60269;52.502;16.732;2023-05-02T06:40:54;10.05;;;3.47;;
72319;SDS011;60269;52.502;16.732;2023-05-02T06:44:26;9.60;;;3.97;;
72319;SDS011;60269;52.502;16.732;2023-05-02T06:47:59;13.87;;;4.07;;
72319;SDS011;60269;52.502;16.732;2023-05-02T06:51:31;10.10;;;3.65;;
72319;SDS011;60269;52.502;16.732;2023-05-02T06:55:03;9.68;;;2.95;;
72319;SDS011;60269;52.502;16.732;2023-05-02T06:58:35;10.83;;;4.17;;
72319;SDS011;60269;52.502;16.732;2023-05-02T07:02:07;9.97;;;4.10;;
72319;SDS011;60269;52.502;16.732;2023-05-02T07:05:39;9.80;;;3.47;;
72319;SDS011;60269;52.502;16.732;2023-05-02T07:09:12;8.48;;;3.78;;
72319;SDS011;60269;52.502;16.732;2023-05-02T07:12:43;10.87;;;3.60;;
72319;SDS011;60269;52.502;16.732;2023-05-02T07:16:16;9.20;;;3.40;;
72319;SDS011;60269;52.502;16.732;2023-05-02T07:19:47;9.13;;;3.10;;
72319;SDS011;60269;52.502;16.732;2023-05-02T07:23:20;9.70;;;3.40;;
72319;SDS011;60269;52.502;16.732;2023-05-02T07:26:54;9.83;;;4.37;;
72319;SDS011;60269;52.502;16.732;2023-05-02T07:30:26;9.47;;;4.53;;
72319;SDS011;60269;52.502;16.732;2023-05-02T07:33:59;11.00;;;4.10;;
72319;SDS011;60269;52.502;16.732;2023-05-02T07:37:31;8.43;;;2.75;;
72319;SDS011;60269;52.502;16.732;2023-05-02T07:41:05;8.63;;;3.03;;
72319;SDS011;60269;52.502;16.732;2023-05-02T07:44:37;8.30;;;3.13;;
72319;SDS011;60269;52.502;16.732;2023-05-02T07:48:09;7.57;;;3.05;;
72319;SDS011;60269;52.502;16.732;2023-05-02T07:51:41;9.23;;;3.92;;
72319;SDS011;60269;52.502;16.732;2023-05-02T07:55:16;8.83;;;2.90;;
72319;SDS011;60269;52.502;16.732;2023-05-02T07:58:48;7.97;;;2.37;;
72319;SDS011;60269;52.502;16.732;2023-05-02T08:02:23;6.90;;;2.60;;
72319;SDS011;60269;52.502;16.732;2023-05-02T08:05:55;7.60;;;3.05;;
72319;SDS011;60269;52.502;16.732;2023-05-02T08:09:28;8.43;;;2.93;;
72319;SDS011;60269;52.502;16.732;2023-05-02T08:13:00;6.63;;;2.70;;
72319;SDS011;60269;52.502;16.732;2023-05-02T08:16:32;10.38;;;3.80;;
72319;SDS011;60269;52.502;16.732;2023-05-02T08:20:04;9.85;;;3.78;;
72319;SDS011;60269;52.502;16.732;2023-05-02T08:23:37;9.97;;;3.40;;
72319;SDS011;60269;52.502;16.732;2023-05-02T08:27:09;9.63;;;3.57;;
72319;SDS011;60269;52.502;16.732;2023-05-02T08:30:41;9.32;;;3.75;;
72319;SDS011;60269;52.502;16.732;2023-05-02T08:34:13;10.23;;;3.53;;
72319;SDS011;60269;52.502;16.732;2023-05-02T08:37:45;9.30;;;3.33;;
72319;SDS011;60269;52.502;16.732;2023-05-02T08:41:17;12.57;;;3.63;;
72319;SDS011;60269;52.502;16.732;2023-05-02T08:44:49;9.57;;;3.60;;
72319;SDS011;60269;52.502;16.732;2023-05-02T08:48:22;8.90;;;3.40;;
72319;SDS011;60269;52.502;16.732;2023-05-02T08:51:54;8.83;;;3.30;;
72319;SDS011;60269;52.502;16.732;2023-05-02T08:55:28;9.07;;;3.60;;
72319;SDS011;60269;52.502;16.732;2023-05-02T08:59:00;11.27;;;3.65;;
72319;SDS011;60269;52.502;16.732;2023-05-02T09:06:35;7.10;;;3.27;;
72319;SDS011;60269;52.502;16.732;2023-05-02T09:10:07;7.47;;;3.20;;
72319;SDS011;60269;52.502;16.732;2023-05-02T09:17:13;8.23;;;3.50;;
72319;SDS011;60269;52.502;16.732;2023-05-02T09:20:45;7.40;;;2.80;;
72319;SDS011;60269;52.502;16.732;2023-05-02T09:24:18;7.63;;;2.73;;
72319;SDS011;60269;52.502;16.732;2023-05-02T09:27:52;6.15;;;2.40;;
72319;SDS011;60269;52.502;16.732;2023-05-02T09:31:26;12.35;;;2.80;;
72319;SDS011;60269;52.502;16.732;2023-05-02T09:35:25;7.32;;;2.40;;
72319;SDS011;60269;52.502;16.732;2023-05-02T09:38:57;8.10;;;2.90;;
72319;SDS011;60269;52.502;16.732;2023-05-02T09:42:41;9.30;;;2.95;;
72319;SDS011;60269;52.502;16.732;2023-05-02T09:46:13;8.48;;;2.45;;
72319;SDS011;60269;52.502;16.732;2023-05-02T09:49:45;9.43;;;2.70;;
72319;SDS011;60269;52.502;16.732;2023-05-02T09:53:19;7.40;;;2.20;;
72319;SDS011;60269;52.502;16.732;2023-05-02T09:56:56;9.18;;;2.30;;
72319;SDS011;60269;52.502;16.732;2023-05-02T10:00:38;6.93;;;2.58;;
72319;SDS011;60269;52.502;16.732;2023-05-02T10:04:13;9.52;;;2.33;;
72319;SDS011;60269;52.502;16.732;2023-05-02T10:07:47;6.60;;;2.03;;
72319;SDS011;60269;52.502;16.732;2023-05-02T10:11:21;8.23;;;2.00;;
72319;SDS011;60269;52.502;16.732;2023-05-02T10:14:58;8.27;;;2.40;;
72319;SDS011;60269;52.502;16.732;2023-05-02T10:22:33;7.17;;;1.90;;
72319;SDS011;60269;52.502;16.732;2023-05-02T10:26:07;7.78;;;1.55;;
72319;SDS011;60269;52.502;16.732;2023-05-02T10:29:39;6.82;;;1.58;;
72319;SDS011;60269;52.502;16.732;2023-05-02T10:33:12;6.70;;;1.70;;
72319;SDS011;60269;52.502;16.732;2023-05-02T10:36:45;8.33;;;2.10;;
72319;SDS011;60269;52.502;16.732;2023-05-02T10:40:18;5.22;;;1.80;;
72319;SDS011;60269;52.502;16.732;2023-05-02T10:43:50;5.72;;;1.33;;
72319;SDS011;60269;52.502;16.732;2023-05-02T10:47:26;4.27;;;1.43;;
72319;SDS011;60269;52.502;16.732;2023-05-02T10:50:59;6.60;;;1.77;;
72319;SDS011;60269;52.502;16.732;2023-05-02T10:54:34;5.07;;;1.45;;
72319;SDS011;60269;52.502;16.732;2023-05-02T10:58:18;4.72;;;1.40;;
72319;SDS011;60269;52.502;16.732;2023-05-02T11:01:51;6.20;;;1.20;;
72319;SDS011;60269;52.502;16.732;2023-05-02T11:05:23;4.90;;;1.70;;
72319;SDS011;60269;52.502;16.732;2023-05-02T11:09:38;3.90;;;1.40;;
72319;SDS011;60269;52.502;16.732;2023-05-02T11:12:55;5.30;;;1.70;;
72319;SDS011;60269;52.502;16.732;2023-05-02T11:20:35;6.20;;;1.73;;
72319;SDS011;60269;52.502;16.732;2023-05-02T11:32:04;6.75;;;2.53;;
72319;SDS011;60269;52.502;16.732;2023-05-02T11:35:37;7.43;;;2.20;;
72319;SDS011;60269;52.502;16.732;2023-05-02T11:39:17;6.65;;;2.22;;
72319;SDS011;60269;52.502;16.732;2023-05-02T11:42:51;7.82;;;2.50;;
72319;SDS011;60269;52.502;16.732;2023-05-02T11:46:26;6.90;;;2.13;;
72319;SDS011;60269;52.502;16.732;2023-05-02T11:50:03;6.53;;;2.20;;
72319;SDS011;60269;52.502;16.732;2023-05-02T11:53:38;8.73;;;2.90;;
72319;SDS011;60269;52.502;16.732;2023-05-02T11:57:12;7.90;;;2.67;;
72319;SDS011;60269;52.502;16.732;2023-05-02T12:00:45;7.30;;;2.72;;
72319;SDS011;60269;52.502;16.732;2023-05-02T12:04:19;8.97;;;2.83;;
72319;SDS011;60269;52.502;16.732;2023-05-02T12:07:54;9.07;;;3.08;;
72319;SDS011;60269;52.502;16.732;2023-05-02T12:11:26;9.60;;;3.47;;
72319;SDS011;60269;52.502;16.732;2023-05-02T12:15:02;8.48;;;3.97;;
72319;SDS011;60269;52.502;16.732;2023-05-02T12:18:35;11.60;;;3.77;;
72319;SDS011;60269;52.502;16.732;2023-05-02T12:22:07;8.00;;;3.90;;
72319;SDS011;60269;52.502;16.732;2023-05-02T12:25:41;9.18;;;3.90;;
72319;SDS011;60269;52.502;16.732;2023-05-02T12:29:13;6.88;;;2.88;;
72319;SDS011;60269;52.502;16.732;2023-05-02T12:32:45;7.00;;;2.90;;
72319;SDS011;60269;52.502;16.732;2023-05-02T12:36:32;12.00;;;3.73;;
72319;SDS011;60269;52.502;16.732;2023-05-02T12:40:13;11.10;;;4.20;;
72319;SDS011;60269;52.502;16.732;2023-05-02T12:43:47;11.55;;;3.85;;
72319;SDS011;60269;52.502;16.732;2023-05-02T12:47:22;8.57;;;3.60;;
72319;SDS011;60269;52.502;16.732;2023-05-02T12:50:54;8.17;;;3.07;;
72319;SDS011;60269;52.502;16.732;2023-05-02T12:54:28;8.60;;;3.13;;
72319;SDS011;60269;52.502;16.732;2023-05-02T12:58:10;8.32;;;2.97;;
72319;SDS011;60269;52.502;16.732;2023-05-02T13:01:45;7.53;;;2.80;;
72319;SDS011;60269;52.502;16.732;2023-05-02T13:05:17;7.60;;;2.10;;
72319;SDS011;60269;52.502;16.732;2023-05-02T13:08:52;7.82;;;2.28;;
72319;SDS011;60269;52.502;16.732;2023-05-02T13:12:24;8.32;;;2.47;;
72319;SDS011;60269;52.502;16.732;2023-05-02T13:15:57;7.45;;;2.25;;
72319;SDS011;60269;52.502;16.732;2023-05-02T13:19:31;5.43;;;1.50;;
72319;SDS011;60269;52.502;16.732;2023-05-02T13:23:03;6.93;;;1.27;;
72319;SDS011;60269;52.502;16.732;2023-05-02T13:26:35;3.85;;;0.82;;
72319;SDS011;60269;52.502;16.732;2023-05-02T13:30:07;5.55;;;1.45;;
72319;SDS011;60269;52.502;16.732;2023-05-02T13:33:40;4.10;;;1.30;;
72319;SDS011;60269;52.502;16.732;2023-05-02T13:37:12;4.40;;;1.00;;
72319;SDS011;60269;52.502;16.732;2023-05-02T13:40:44;2.90;;;0.70;;
72319;SDS011;60269;52.502;16.732;2023-05-02T13:44:17;5.22;;;1.00;;
72319;SDS011;60269;52.502;16.732;2023-05-02T13:47:49;5.45;;;1.02;;
72319;SDS011;60269;52.502;16.732;2023-05-02T13:51:21;6.10;;;1.20;;
72319;SDS011;60269;52.502;16.732;2023-05-02T13:54:55;3.58;;;1.02;;
72319;SDS011;60269;52.502;16.732;2023-05-02T13:58:27;3.75;;;1.00;;
72319;SDS011;60269;52.502;16.732;2023-05-02T14:01:58;3.53;;;1.15;;
72319;SDS011;60269;52.502;16.732;2023-05-02T14:05:31;3.10;;;0.80;;
72319;SDS011;60269;52.502;16.732;2023-05-02T14:09:05;4.50;;;1.00;;
72319;SDS011;60269;52.502;16.732;2023-05-02T14:12:38;3.50;;;0.80;;
72319;SDS011;60269;52.502;16.732;2023-05-02T14:16:10;3.90;;;1.15;;
72319;SDS011;60269;52.502;16.732;2023-05-02T14:19:42;3.73;;;1.10;;
72319;SDS011;60269;52.502;16.732;2023-05-02T14:23:14;2.50;;;0.80;;
72319;SDS011;60269;52.502;16.732;2023-05-02T14:26:47;3.47;;;0.95;;
72319;SDS011;60269;52.502;16.732;2023-05-02T14:30:19;2.85;;;0.60;;
72319;SDS011;60269;52.502;16.732;2023-05-02T14:33:51;5.10;;;1.20;;
72319;SDS011;60269;52.502;16.732;2023-05-02T14:37:23;2.97;;;0.70;;
72319;SDS011;60269;52.502;16.732;2023-05-02T14:40:55;4.15;;;0.60;;
72319;SDS011;60269;52.502;16.732;2023-05-02T14:44:27;2.28;;;0.60;;
72319;SDS011;60269;52.502;16.732;2023-05-02T14:48:00;5.05;;;0.80;;
72319;SDS011;60269;52.502;16.732;2023-05-02T14:51:32;3.23;;;0.50;;
72319;SDS011;60269;52.502;16.732;2023-05-02T14:55:04;5.40;;;0.80;;
72319;SDS011;60269;52.502;16.732;2023-05-02T14:58:37;4.68;;;0.80;;
72319;SDS011;60269;52.502;16.732;2023-05-02T15:02:09;4.97;;;1.33;;
72319;SDS011;60269;52.502;16.732;2023-05-02T15:05:41;4.60;;;1.10;;
72319;SDS011;60269;52.502;16.732;2023-05-02T15:09:15;6.03;;;1.63;;
72319;SDS011;60269;52.502;16.732;2023-05-02T15:12:47;6.90;;;1.52;;
72319;SDS011;60269;52.502;16.732;2023-05-02T15:16:21;4.55;;;1.40;;
72319;SDS011;60269;52.502;16.732;2023-05-02T15:19:58;8.43;;;2.67;;
72319;SDS011;60269;52.502;16.732;2023-05-02T15:23:32;9.00;;;2.70;;
72319;SDS011;60269;52.502;16.732;2023-05-02T15:27:05;4.45;;;1.00;;
72319;SDS011;60269;52.502;16.732;2023-05-02T15:30:37;4.57;;;0.93;;
72319;SDS011;60269;52.502;16.732;2023-05-02T15:34:09;5.53;;;0.90;;
72319;SDS011;60269;52.502;16.732;2023-05-02T15:37:50;6.03;;;1.40;;
72319;SDS011;60269;52.502;16.732;2023-05-02T15:41:23;4.05;;;1.02;;
72319;SDS011;60269;52.502;16.732;2023-05-02T15:44:57;3.95;;;0.68;;
72319;SDS011;60269;52.502;16.732;2023-05-02T15:48:29;3.70;;;0.70;;
72319;SDS011;60269;52.502;16.732;2023-05-02T15:52:03;4.88;;;0.80;;
72319;SDS011;60269;52.502;16.732;2023-05-02T15:55:35;4.18;;;0.75;;
72319;SDS011;60269;52.502;16.732;2023-05-02T15:59:08;4.43;;;0.90;;
72319;SDS011;60269;52.502;16.732;2023-05-02T16:02:40;6.13;;;1.20;;
72319;SDS011;60269;52.502;16.732;2023-05-02T16:06:12;4.95;;;1.00;;
72319;SDS011;60269;52.502;16.732;2023-05-02T16:09:46;6.63;;;1.60;;
72319;SDS011;60269;52.502;16.732;2023-05-02T16:13:18;4.93;;;1.00;;
72319;SDS011;60269;52.502;16.732;2023-05-02T16:16:51;6.97;;;1.00;;
72319;SDS011;60269;52.502;16.732;2023-05-02T16:20:23;4.75;;;1.23;;
72319;SDS011;60269;52.502;16.732;2023-05-02T16:23:56;5.60;;;1.23;;
72319;SDS011;60269;52.502;16.732;2023-05-02T16:27:28;8.30;;;1.30;;
72319;SDS011;60269;52.502;16.732;2023-05-02T16:31:04;5.57;;;1.37;;
72319;SDS011;60269;52.502;16.732;2023-05-02T16:34:37;5.63;;;1.10;;
72319;SDS011;60269;52.502;16.732;2023-05-02T16:38:10;9.20;;;1.15;;
72319;SDS011;60269;52.502;16.732;2023-05-02T16:41:42;6.17;;;0.97;;
72319;SDS011;60269;52.502;16.732;2023-05-02T16:45:15;6.03;;;1.27;;
72319;SDS011;60269;52.502;16.732;2023-05-02T16:48:47;8.07;;;1.33;;
72319;SDS011;60269;52.502;16.732;2023-05-02T16:52:19;6.07;;;1.20;;
72319;SDS011;60269;52.502;16.732;2023-05-02T16:55:52;6.77;;;1.70;;
72319;SDS011;60269;52.502;16.732;2023-05-02T16:59:25;5.30;;;1.17;;
72319;SDS011;60269;52.502;16.732;2023-05-02T17:02:57;6.85;;;1.63;;
72319;SDS011;60269;52.502;16.732;2023-05-02T17:06:29;6.90;;;1.00;;
72319;SDS011;60269;52.502;16.732;2023-05-02T17:10:02;6.03;;;1.30;;
72319;SDS011;60269;52.502;16.732;2023-05-02T17:13:36;8.07;;;1.40;;
72319;SDS011;60269;52.502;16.732;2023-05-02T17:17:08;6.50;;;1.40;;
72319;SDS011;60269;52.502;16.732;2023-05-02T17:20:40;8.68;;;2.67;;
72319;SDS011;60269;52.502;16.732;2023-05-02T17:24:12;6.10;;;1.33;;
72319;SDS011;60269;52.502;16.732;2023-05-02T17:27:44;12.10;;;3.70;;
72319;SDS011;60269;52.502;16.732;2023-05-02T17:31:16;6.78;;;1.20;;
72319;SDS011;60269;52.502;16.732;2023-05-02T17:34:49;6.20;;;1.58;;
72319;SDS011;60269;52.502;16.732;2023-05-02T17:38:20;10.27;;;1.73;;
72319;SDS011;60269;52.502;16.732;2023-05-02T17:41:52;6.80;;;1.73;;
72319;SDS011;60269;52.502;16.732;2023-05-02T17:45:26;7.65;;;2.00;;
72319;SDS011;60269;52.502;16.732;2023-05-02T17:48:59;8.82;;;1.40;;
72319;SDS011;60269;52.502;16.732;2023-05-02T17:52:33;10.23;;;1.63;;
72319;SDS011;60269;52.502;16.732;2023-05-02T17:56:06;9.50;;;2.30;;
72319;SDS011;60269;52.502;16.732;2023-05-02T17:59:38;10.43;;;1.80;;
72319;SDS011;60269;52.502;16.732;2023-05-02T18:03:11;7.93;;;1.58;;
72319;SDS011;60269;52.502;16.732;2023-05-02T18:06:44;10.70;;;2.60;;
72319;SDS011;60269;52.502;16.732;2023-05-02T18:10:16;8.60;;;2.47;;
72319;SDS011;60269;52.502;16.732;2023-05-02T18:13:48;8.10;;;2.17;;
72319;SDS011;60269;52.502;16.732;2023-05-02T18:17:20;8.00;;;1.38;;
72319;SDS011;60269;52.502;16.732;2023-05-02T18:20:53;6.43;;;1.30;;
72319;SDS011;60269;52.502;16.732;2023-05-02T18:24:26;8.63;;;1.23;;
72319;SDS011;60269;52.502;16.732;2023-05-02T18:27:58;10.75;;;1.80;;
72319;SDS011;60269;52.502;16.732;2023-05-02T18:31:48;8.00;;;1.55;;
72319;SDS011;60269;52.502;16.732;2023-05-02T18:35:23;12.97;;;2.00;;
72319;SDS011;60269;52.502;16.732;2023-05-02T18:38:55;8.77;;;1.50;;
72319;SDS011;60269;52.502;16.732;2023-05-02T18:42:27;7.70;;;1.77;;
72319;SDS011;60269;52.502;16.732;2023-05-02T18:45:59;8.65;;;1.52;;
72319;SDS011;60269;52.502;16.732;2023-05-02T18:49:31;9.27;;;2.37;;
72319;SDS011;60269;52.502;16.732;2023-05-02T18:53:03;8.53;;;1.13;;
72319;SDS011;60269;52.502;16.732;2023-05-02T18:56:35;8.20;;;2.45;;
72319;SDS011;60269;52.502;16.732;2023-05-02T19:00:07;11.95;;;1.98;;
72319;SDS011;60269;52.502;16.732;2023-05-02T19:03:40;7.57;;;2.37;;
72319;SDS011;60269;52.502;16.732;2023-05-02T19:07:14;9.10;;;2.10;;
72319;SDS011;60269;52.502;16.732;2023-05-02T19:10:47;6.97;;;1.55;;
72319;SDS011;60269;52.502;16.732;2023-05-02T19:14:19;7.70;;;1.70;;
72319;SDS011;60269;52.502;16.732;2023-05-02T19:17:51;7.18;;;2.25;;
72319;SDS011;60269;52.502;16.732;2023-05-02T19:21:24;12.10;;;2.47;;
72319;SDS011;60269;52.502;16.732;2023-05-02T19:24:58;8.85;;;2.47;;
72319;SDS011;60269;52.502;16.732;2023-05-02T19:28:31;8.13;;;1.92;;
72319;SDS011;60269;52.502;16.732;2023-05-02T19:32:03;8.20;;;2.60;;
72319;SDS011;60269;52.502;16.732;2023-05-02T19:35:36;9.27;;;1.77;;
72319;SDS011;60269;52.502;16.732;2023-05-02T19:39:08;7.97;;;1.80;;
72319;SDS011;60269;52.502;16.732;2023-05-02T19:43:02;7.32;;;2.05;;
72319;SDS011;60269;52.502;16.732;2023-05-02T19:47:03;8.53;;;3.00;;
72319;SDS011;60269;52.502;16.732;2023-05-02T19:50:38;8.23;;;2.07;;
72319;SDS011;60269;52.502;16.732;2023-05-02T19:54:10;12.57;;;3.60;;
72319;SDS011;60269;52.502;16.732;2023-05-02T19:57:45;13.55;;;2.33;;
72319;SDS011;60269;52.502;16.732;2023-05-02T20:01:17;8.80;;;2.37;;
72319;SDS011;60269;52.502;16.732;2023-05-02T20:04:49;6.17;;;1.80;;
72319;SDS011;60269;52.502;16.732;2023-05-02T20:08:21;11.27;;;2.47;;
72319;SDS011;60269;52.502;16.732;2023-05-02T20:12:02;9.63;;;2.42;;
72319;SDS011;60269;52.502;16.732;2023-05-02T20:15:34;11.93;;;2.40;;
72319;SDS011;60269;52.502;16.732;2023-05-02T20:19:06;10.27;;;2.40;;
72319;SDS011;60269;52.502;16.732;2023-05-02T20:22:38;10.93;;;2.45;;
72319;SDS011;60269;52.502;16.732;2023-05-02T20:26:10;11.30;;;2.28;;
72319;SDS011;60269;52.502;16.732;2023-05-02T20:29:44;9.13;;;2.80;;
72319;SDS011;60269;52.502;16.732;2023-05-02T20:33:16;12.38;;;2.28;;
72319;SDS011;60269;52.502;16.732;2023-05-02T20:36:50;10.43;;;2.20;;
72319;SDS011;60269;52.502;16.732;2023-05-02T20:40:22;9.83;;;2.47;;
72319;SDS011;60269;52.502;16.732;2023-05-02T20:43:57;10.80;;;2.20;;
72319;SDS011;60269;52.502;16.732;2023-05-02T20:47:28;14.32;;;2.17;;
72319;SDS011;60269;52.502;16.732;2023-05-02T20:51:01;7.67;;;1.30;;
72319;SDS011;60269;52.502;16.732;2023-05-02T20:54:33;6.40;;;1.50;;
72319;SDS011;60269;52.502;16.732;2023-05-02T20:58:05;7.70;;;1.95;;
72319;SDS011;60269;52.502;16.732;2023-05-02T21:01:37;8.40;;;1.58;;
72319;SDS011;60269;52.502;16.732;2023-05-02T21:05:09;9.10;;;1.67;;
72319;SDS011;60269;52.502;16.732;2023-05-02T21:08:41;11.67;;;1.50;;
72319;SDS011;60269;52.502;16.732;2023-05-02T21:12:13;7.15;;;1.10;;
72319;SDS011;60269;52.502;16.732;2023-05-02T21:15:45;6.32;;;1.58;;
72319;SDS011;60269;52.502;16.732;2023-05-02T21:19:18;6.50;;;1.23;;
72319;SDS011;60269;52.502;16.732;2023-05-02T21:22:50;6.90;;;1.23;;
72319;SDS011;60269;52.502;16.732;2023-05-02T21:26:23;6.78;;;1.83;;
72319;SDS011;60269;52.502;16.732;2023-05-02T21:29:56;6.07;;;1.30;;
72319;SDS011;60269;52.502;16.732;2023-05-02T21:33:28;8.63;;;1.50;;
72319;SDS011;60269;52.502;16.732;2023-05-02T21:37:01;8.55;;;1.23;;
72319;SDS011;60269;52.502;16.732;2023-05-02T21:40:33;6.32;;;1.30;;
72319;SDS011;60269;52.502;16.732;2023-05-02T21:44:08;7.53;;;1.40;;